Time;durP1;ratioP1;P1;durP2;ratioP2;P2;SDS_P1;SDS_P2;PMS_P1;PMS_P2;Temp;Humidity;BMP_temperature;BMP_pressure;BME280_temperature;BME280_humidity;BME280_pressure;Samples;Min_cycle;Max_cycle;Signal;HPM_P1;HPM_P2
2022/01/25 00:25:59;;;;;;;23.13;17.02;;;8.30;78.90;;;;;;5028766;28;20038;-82
2022/01/25 00:28:41;;;;;;;21.90;16.85;;;8.30;78.90;;;;;;5035754;28;20022;-82
2022/01/25 00:31:12;;;;;;;20.77;15.60;;;8.30;78.90;;;;;;5027143;28;20053;-84
2022/01/25 00:33:42;;;;;;;21.75;16.65;;;8.30;78.90;;;;;;5030603;28;20496;-81
2022/01/25 00:36:11;;;;;;;23.70;17.73;;;8.30;79.00;;;;;;5030291;28;20029;-82
2022/01/25 00:38:37;;;;;;;21.35;16.38;;;8.30;79.00;;;;;;5012443;28;20029;-81
2022/01/25 00:41:03;;;;;;;22.95;16.85;;;8.30;79.00;;;;;;5028840;28;20026;-82
2022/01/25 00:43:30;;;;;;;23.75;16.92;;;8.40;79.00;;;;;;5012756;28;20033;-83
2022/01/25 00:46:04;;;;;;;21.63;16.85;;;8.30;78.90;;;;;;5030064;28;20524;-82
2022/01/25 00:48:41;;;;;;;23.90;17.63;;;8.30;79.00;;;;;;5029841;28;20037;-82
2022/01/25 00:56:25;;;;;;;21.08;15.95;;;8.30;78.90;;;;;;5030759;28;20041;-82
2022/01/25 00:58:51;;;;;;;21.85;16.77;;;8.30;78.90;;;;;;5012736;28;20045;-81
2022/01/25 01:01:18;;;;;;;21.50;15.70;;;8.30;78.90;;;;;;5012897;28;20538;-82
2022/01/25 01:03:44;;;;;;;23.27;16.80;;;8.30;79.00;;;;;;5012101;28;20025;-86
2022/01/25 01:06:10;;;;;;;22.95;17.45;;;8.30;79.00;;;;;;5034592;28;20363;-82
2022/01/25 01:08:36;;;;;;;22.85;16.90;;;8.30;79.00;;;;;;5012344;28;20445;-82
2022/01/25 01:11:05;;;;;;;22.50;17.05;;;8.30;79.00;;;;;;5028374;28;20457;-84
2022/01/25 01:32:36;;;;;;;21.30;16.38;;;8.20;78.90;;;;;;5034238;28;20068;-83
2022/01/25 01:43:36;;;;;;;21.88;15.77;;;8.20;78.90;;;;;;4930798;29;20127;-82
2022/01/25 01:48:36;;;;;;;20.00;15.60;;;8.30;79.00;;;;;;5033095;28;20029;-82
2022/01/25 01:51:08;;;;;;;22.90;16.95;;;8.30;79.10;;;;;;5017241;28;20021;-82
2022/01/25 01:53:35;;;;;;;23.15;16.73;;;8.20;79.00;;;;;;5016552;28;20369;-82
2022/01/25 01:56:02;;;;;;;23.05;17.20;;;8.20;79.00;;;;;;5032970;28;20044;-81
2022/01/25 01:58:28;;;;;;;23.77;17.77;;;8.20;79.00;;;;;;5032526;28;20034;-81
2022/01/25 02:00:54;;;;;;;23.00;17.48;;;8.20;78.90;;;;;;5031292;28;20080;-83
2022/01/25 02:03:20;;;;;;;22.90;17.50;;;8.20;79.00;;;;;;5033061;28;20017;-84
2022/01/25 02:05:46;;;;;;;23.90;17.42;;;8.20;79.00;;;;;;5049443;28;20041;-82
2022/01/25 02:08:12;;;;;;;23.10;17.52;;;8.30;79.00;;;;;;5015493;28;20092;-82
2022/01/25 02:10:39;;;;;;;22.65;18.25;;;8.20;78.90;;;;;;5032742;28;20053;-83
2022/01/25 02:13:07;;;;;;;22.92;17.75;;;8.20;78.90;;;;;;5032188;28;20018;-82
2022/01/25 02:15:33;;;;;;;24.15;17.90;;;8.20;78.90;;;;;;5032218;28;20052;-82
2022/01/25 02:23:28;;;;;;;20.85;16.00;;;8.20;78.90;;;;;;5033998;28;20516;-82
2022/01/25 02:25:58;;;;;;;21.45;15.95;;;8.20;78.90;;;;;;5015677;28;20402;-81
2022/01/25 02:28:30;;;;;;;21.40;16.98;;;8.20;78.90;;;;;;5016309;28;20070;-83
2022/01/25 02:30:56;;;;;;;20.33;16.38;;;8.20;79.00;;;;;;5015737;28;20052;-84
2022/01/25 02:33:22;;;;;;;23.75;16.75;;;8.20;79.00;;;;;;5031688;28;20067;-85
2022/01/25 02:35:49;;;;;;;22.48;16.45;;;8.20;79.00;;;;;;5014521;28;20121;-82
2022/01/25 02:38:20;;;;;;;23.63;18.00;;;8.20;78.90;;;;;;5031129;28;20025;-86
2022/01/25 02:40:46;;;;;;;21.10;15.73;;;8.20;79.00;;;;;;5014557;28;20049;-82
2022/01/25 02:43:15;;;;;;;22.35;17.17;;;8.20;79.40;;;;;;5031267;28;20060;-83
2022/01/25 02:45:45;;;;;;;21.77;17.02;;;8.20;78.90;;;;;;5030782;28;20057;-84
2022/01/25 02:48:30;;;;;;;21.63;16.98;;;8.20;79.50;;;;;;5010269;28;20040;-83
2022/01/25 02:51:02;;;;;;;22.52;16.90;;;8.10;78.80;;;;;;5039300;28;20037;-82
2022/01/25 02:53:29;;;;;;;21.63;16.23;;;8.10;78.80;;;;;;5031661;28;20037;-82
2022/01/25 02:55:55;;;;;;;21.42;15.88;;;8.20;78.90;;;;;;5031314;28;20100;-82
2022/01/25 02:58:21;;;;;;;24.45;17.90;;;8.20;78.90;;;;;;5035691;28;20036;-82
2022/01/25 03:00:47;;;;;;;26.13;17.75;;;8.10;78.80;;;;;;5015498;28;20017;-85
2022/01/25 03:03:13;;;;;;;22.67;16.65;;;8.10;78.80;;;;;;5014508;28;20018;-82
2022/01/25 03:05:39;;;;;;;22.75;17.05;;;8.10;78.80;;;;;;5030826;28;20522;-83
2022/01/25 03:08:07;;;;;;;22.30;16.33;;;8.10;78.80;;;;;;5012743;28;20025;-84
2022/01/25 03:10:38;;;;;;;21.67;17.00;;;8.20;78.90;;;;;;5031077;28;20428;-82
2022/01/25 03:13:08;;;;;;;21.50;16.52;;;8.10;78.80;;;;;;5012667;28;20030;-81
2022/01/25 03:21:04;;;;;;;23.33;17.85;;;8.10;78.80;;;;;;5030842;28;20037;-84
2022/01/25 03:23:32;;;;;;;22.40;16.42;;;8.10;78.80;;;;;;5012937;28;20032;-82
2022/01/25 03:25:58;;;;;;;22.70;16.80;;;8.10;78.80;;;;;;5030776;28;20072;-82
2022/01/25 03:28:24;;;;;;;23.77;17.05;;;8.10;78.80;;;;;;5011592;28;20061;-83
2022/01/25 03:30:50;;;;;;;22.50;16.75;;;8.10;78.90;;;;;;5010641;28;20033;-83
2022/01/25 03:33:17;;;;;;;24.02;17.45;;;8.10;78.90;;;;;;5030878;28;20025;-82
2022/01/25 03:35:45;;;;;;;24.98;17.40;;;8.10;79.50;;;;;;5031079;28;20068;-83
2022/01/25 03:38:12;;;;;;;21.42;16.60;;;8.10;78.90;;;;;;5030269;28;20021;-86
2022/01/25 03:40:37;;;;;;;23.95;17.58;;;8.10;78.90;;;;;;5030135;28;20082;-83
2022/01/25 03:43:06;;;;;;;25.92;18.90;;;8.10;78.90;;;;;;5013729;28;20484;-85
2022/01/25 03:45:34;;;;;;;23.25;17.55;;;8.10;78.90;;;;;;5015031;28;20048;-81
2022/01/25 03:49:49;;;;;;;25.40;17.50;;;8.10;78.90;;;;;;5017484;28;20106;-81
2022/01/25 03:50:49;;;;;;;25.15;16.92;;;8.10;78.90;;;;;;5029363;28;20377;-81
2022/01/25 03:53:17;;;;;;;23.52;16.90;;;8.00;78.80;;;;;;5031200;28;20394;-82
2022/01/25 03:55:43;;;;;;;24.98;17.25;;;8.00;78.80;;;;;;5010582;28;20033;-81
2022/01/25 03:58:09;;;;;;;22.20;16.05;;;8.10;78.90;;;;;;5006905;28;20018;-81
2022/01/25 04:00:37;;;;;;;24.08;17.23;;;8.00;78.80;;;;;;5030729;28;20034;-84
2022/01/25 04:03:16;;;;;;;25.33;17.33;;;8.00;78.80;;;;;;5014031;28;20462;-81
2022/01/25 04:08:09;;;;;;;23.90;16.73;;;8.00;78.80;;;;;;5030762;28;20125;-81
2022/01/25 04:10:35;;;;;;;25.33;16.85;;;8.00;78.90;;;;;;5014575;28;20029;-82
2022/01/25 04:13:01;;;;;;;23.25;17.10;;;8.00;78.80;;;;;;5030315;28;20032;-82
2022/01/25 04:15:27;;;;;;;23.58;17.48;;;8.00;78.80;;;;;;5030144;28;20490;-81
2022/01/25 04:18:02;;;;;;;24.20;16.40;;;8.00;78.80;;;;;;5030289;28;20478;-81
2022/01/25 04:20:34;;;;;;;23.77;16.65;;;8.00;78.90;;;;;;5006430;28;20394;-81
2022/01/25 04:25:44;;;;;;;24.63;17.27;;;8.00;78.80;;;;;;5027302;28;20042;-82
2022/01/25 04:28:10;;;;;;;24.38;17.25;;;8.00;78.80;;;;;;5012221;28;20716;-82
2022/01/25 04:30:36;;;;;;;23.38;15.80;;;8.00;78.80;;;;;;5014610;28;20033;-81
2022/01/25 04:33:06;;;;;;;25.73;17.70;;;8.00;78.90;;;;;;5033557;28;20025;-81
2022/01/25 04:49:16;;;;;;;25.50;17.70;;;8.00;78.80;;;;;;5030484;28;20034;-82
2022/01/25 04:59:54;;;;;;;24.60;16.13;;;7.90;78.80;;;;;;5030781;28;20037;-81
2022/01/25 05:04:55;;;;;;;25.30;17.05;;;7.90;78.80;;;;;;5030437;28;20113;-82
2022/01/25 05:09:51;;;;;;;25.58;17.52;;;7.90;78.90;;;;;;5032940;28;20057;-82
2022/01/25 05:12:17;;;;;;;25.20;17.13;;;7.90;78.90;;;;;;5016626;28;20057;-85
2022/01/25 05:14:57;;;;;;;25.10;17.35;;;7.90;78.90;;;;;;5032860;28;20410;-86
2022/01/25 05:17:33;;;;;;;25.08;17.33;;;7.90;78.90;;;;;;5033504;28;20537;-82
2022/01/25 05:22:43;;;;;;;24.08;16.15;;;7.90;78.90;;;;;;5035050;28;20109;-88
2022/01/25 05:25:09;;;;;;;25.95;17.50;;;7.80;78.80;;;;;;5033937;28;20142;-86
2022/01/25 05:27:35;;;;;;;24.77;17.65;;;7.90;78.90;;;;;;5033313;28;20026;-81
2022/01/25 05:30:01;;;;;;;25.85;17.27;;;7.90;78.90;;;;;;5012883;28;20044;-82
2022/01/25 05:32:27;;;;;;;27.08;18.75;;;7.90;78.90;;;;;;5015332;28;20080;-81
2022/01/25 05:34:53;;;;;;;26.50;17.63;;;7.90;78.90;;;;;;5032378;28;20021;-81
2022/01/25 05:37:22;;;;;;;26.15;17.75;;;7.90;78.90;;;;;;5016225;28;20470;-81
2022/01/25 05:39:49;;;;;;;23.98;16.38;;;7.80;78.80;;;;;;5041191;28;20532;-82
2022/01/25 05:42:29;;;;;;;25.63;17.13;;;7.90;78.90;;;;;;5008352;28;20030;-80
2022/01/25 05:44:59;;;;;;;25.13;17.27;;;7.90;78.90;;;;;;5031418;28;20494;-81
2022/01/25 05:47:30;;;;;;;27.08;17.80;;;7.80;78.80;;;;;;5032007;28;20033;-82
2022/01/25 05:50:00;;;;;;;25.92;17.40;;;7.90;78.90;;;;;;5024226;28;20036;-80
2022/01/25 05:52:45;;;;;;;24.35;16.13;;;7.80;78.80;;;;;;5015990;28;20025;-81
2022/01/25 05:55:24;;;;;;;24.30;16.30;;;7.90;78.90;;;;;;5009718;28;20049;-82
2022/01/25 06:02:45;;;;;;;23.45;15.65;;;7.80;78.90;;;;;;5017010;28;20119;-84
2022/01/25 06:05:50;;;;;;;22.45;15.30;;;7.80;78.70;;;;;;5025135;28;20091;-82
2022/01/25 06:08:32;;;;;;;23.02;14.60;;;7.80;78.90;;;;;;4997507;28;20037;-81
2022/01/25 06:11:32;;;;;;;22.58;15.38;;;7.70;79.00;;;;;;4981089;28;20037;-81
2022/01/25 06:15:01;;;;;;;22.05;14.88;;;7.80;79.00;;;;;;5029147;28;20083;-81
2022/01/25 06:17:57;;;;;;;22.90;15.23;;;7.70;78.90;;;;;;5026478;28;20055;-80
2022/01/25 06:20:25;;;;;;;23.52;15.32;;;7.70;79.50;;;;;;5021074;28;20041;-83
2022/01/25 06:22:51;;;;;;;23.25;15.70;;;7.70;79.00;;;;;;5013401;28;20390;-81
2022/01/25 06:25:17;;;;;;;23.80;16.67;;;7.70;78.90;;;;;;5029924;28;20115;-80
2022/01/25 06:27:45;;;;;;;25.30;17.10;;;7.70;78.90;;;;;;5030891;28;20444;-82
2022/01/25 06:30:14;;;;;;;26.60;18.10;;;7.70;78.90;;;;;;5013451;28;20036;-83
2022/01/25 06:32:41;;;;;;;25.25;16.42;;;7.70;78.90;;;;;;5005946;28;20112;-86
2022/01/25 06:35:07;;;;;;;25.38;16.30;;;7.70;78.90;;;;;;5028712;28;20033;-81
2022/01/25 06:37:34;;;;;;;25.48;16.63;;;7.70;78.90;;;;;;5023513;28;20131;-84
2022/01/25 06:40:01;;;;;;;24.75;15.98;;;7.80;78.90;;;;;;4996617;28;20068;-80
2022/01/25 06:42:31;;;;;;;24.85;16.08;;;7.80;78.90;;;;;;5022488;28;20584;-86
2022/01/25 06:45:02;;;;;;;26.88;17.58;;;7.70;78.90;;;;;;5023785;28;20048;-82
2022/01/25 06:47:28;;;;;;;26.05;16.73;;;7.80;78.90;;;;;;4999762;28;20065;-82
2022/01/25 06:49:55;;;;;;;24.40;15.93;;;7.80;78.90;;;;;;5014294;28;20038;-81
2022/01/25 06:52:21;;;;;;;26.33;17.48;;;7.80;78.90;;;;;;5025052;28;20041;-81
2022/01/25 06:54:47;;;;;;;23.98;16.15;;;7.70;78.80;;;;;;5027732;28;20083;-81
2022/01/25 06:57:13;;;;;;;26.13;17.27;;;7.70;78.80;;;;;;5006725;28;20108;-82
2022/01/25 06:59:39;;;;;;;24.75;16.77;;;7.70;78.80;;;;;;5004701;28;20030;-84
2022/01/25 07:02:07;;;;;;;26.63;17.52;;;7.70;78.80;;;;;;5013895;28;20026;-83
2022/01/25 07:04:32;;;;;;;26.40;17.83;;;7.70;78.80;;;;;;5014547;28;20414;-82
2022/01/25 07:06:58;;;;;;;27.25;17.02;;;7.70;78.80;;;;;;4996428;28;20044;-85
2022/01/25 07:09:24;;;;;;;27.55;17.50;;;7.70;78.80;;;;;;5007323;28;20371;-83
2022/01/25 07:11:50;;;;;;;26.08;17.38;;;7.70;78.80;;;;;;5014962;28;20235;-81
2022/01/25 07:14:17;;;;;;;26.63;17.20;;;7.70;78.80;;;;;;4998120;28;20021;-82
2022/01/25 07:16:46;;;;;;;25.70;17.00;;;7.70;78.80;;;;;;5013999;28;20045;-83
2022/01/25 07:19:12;;;;;;;25.30;16.70;;;7.70;78.80;;;;;;5029350;28;20414;-81
2022/01/25 07:21:38;;;;;;;26.98;17.30;;;7.70;78.90;;;;;;5006396;28;20509;-81
2022/01/25 07:24:05;;;;;;;26.77;17.45;;;7.70;78.80;;;;;;4997749;28;20099;-83
2022/01/25 07:26:31;;;;;;;26.95;17.55;;;7.70;78.80;;;;;;5014245;28;20045;-83
2022/01/25 07:28:57;;;;;;;25.15;17.20;;;7.70;78.80;;;;;;5012831;28;20052;-84
2022/01/25 07:31:23;;;;;;;26.58;16.58;;;7.70;78.80;;;;;;5013580;28;20436;-83
2022/01/25 07:33:48;;;;;;;24.23;16.30;;;7.70;78.80;;;;;;5003191;28;20406;-82
2022/01/25 07:36:14;;;;;;;26.95;17.45;;;7.70;79.50;;;;;;5031519;28;20037;-83
2022/01/25 07:38:40;;;;;;;25.48;17.58;;;7.70;78.80;;;;;;5015077;28;20026;-83
2022/01/25 07:41:06;;;;;;;25.42;16.55;;;7.70;78.80;;;;;;5031647;28;20120;-82
2022/01/25 07:43:33;;;;;;;25.13;16.63;;;7.70;78.80;;;;;;5047891;28;20030;-84
2022/01/25 07:46:04;;;;;;;24.88;16.13;;;7.70;78.80;;;;;;5031042;28;20034;-82
2022/01/25 07:48:31;;;;;;;26.67;17.48;;;7.70;78.90;;;;;;5029377;28;20124;-82
2022/01/25 07:50:57;;;;;;;25.13;17.65;;;7.70;78.80;;;;;;5030954;28;20029;-84
2022/01/25 07:53:23;;;;;;;25.88;16.88;;;7.60;78.80;;;;;;5031293;28;20488;-82
2022/01/25 07:55:48;;;;;;;27.80;18.70;;;7.70;78.80;;;;;;5031118;28;20116;-82
2022/01/25 07:58:17;;;;;;;26.10;17.10;;;7.60;78.80;;;;;;5030442;28;20029;-84
2022/01/25 08:00:43;;;;;;;26.13;17.33;;;7.70;78.80;;;;;;5033034;28;20049;-80
2022/01/25 08:03:10;;;;;;;24.73;16.67;;;7.60;78.80;;;;;;5030065;28;20030;-86
2022/01/25 08:05:36;;;;;;;27.27;17.20;;;7.60;78.80;;;;;;5014381;28;20035;-80
2022/01/25 08:08:01;;;;;;;27.25;17.00;;;7.70;78.80;;;;;;5028303;28;20105;-81
2022/01/25 08:10:28;;;;;;;27.42;17.27;;;7.60;78.80;;;;;;5039008;28;20021;-80
2022/01/25 08:12:54;;;;;;;26.27;17.33;;;7.60;78.80;;;;;;5029404;28;20033;-83
2022/01/25 08:15:20;;;;;;;25.50;16.88;;;7.70;78.80;;;;;;5013630;28;20049;-84
2022/01/25 08:17:46;;;;;;;26.25;16.85;;;7.70;78.90;;;;;;5030306;28;20022;-83
2022/01/25 08:20:12;;;;;;;28.23;17.52;;;7.60;78.80;;;;;;5013539;28;20033;-84
2022/01/25 08:22:40;;;;;;;24.65;16.15;;;7.70;78.80;;;;;;5029562;28;20064;-85
2022/01/25 08:25:06;;;;;;;27.17;17.35;;;7.60;78.80;;;;;;5014183;28;20628;-87
2022/01/25 08:27:35;;;;;;;26.13;17.08;;;7.60;78.80;;;;;;5005776;28;20471;-84
2022/01/25 08:30:01;;;;;;;25.17;17.15;;;7.60;78.80;;;;;;5014259;28;20037;-85
2022/01/25 08:32:27;;;;;;;25.58;17.25;;;7.60;78.80;;;;;;5030780;28;20025;-85
2022/01/25 08:34:52;;;;;;;27.77;17.90;;;7.60;78.70;;;;;;5030210;28;20482;-83
2022/01/25 08:37:18;;;;;;;29.50;18.88;;;7.60;78.80;;;;;;5030234;28;20029;-85
2022/01/25 08:39:44;;;;;;;29.13;18.35;;;7.60;78.70;;;;;;5018588;28;20026;-83
2022/01/25 08:42:11;;;;;;;27.40;17.30;;;7.60;78.70;;;;;;5036841;28;20037;-84
2022/01/25 08:44:38;;;;;;;27.13;17.17;;;7.60;78.70;;;;;;5035056;28;20030;-83
2022/01/25 08:47:07;;;;;;;26.60;17.88;;;7.60;78.80;;;;;;5022717;28;20033;-84
2022/01/25 08:49:34;;;;;;;28.10;18.15;;;7.60;78.80;;;;;;5021447;28;20080;-83
2022/01/25 08:52:02;;;;;;;26.63;17.35;;;7.60;78.80;;;;;;5017712;28;20021;-86
2022/01/25 08:54:28;;;;;;;30.17;18.75;;;7.60;78.80;;;;;;5034332;28;20045;-83
2022/01/25 08:56:55;;;;;;;27.35;17.80;;;7.60;78.80;;;;;;5018201;28;20095;-84
2022/01/25 08:59:21;;;;;;;27.35;17.40;;;7.60;78.80;;;;;;5033644;28;20037;-84
2022/01/25 09:01:47;;;;;;;28.83;18.83;;;7.60;78.70;;;;;;5017526;28;20029;-85
2022/01/25 09:04:13;;;;;;;30.48;18.75;;;7.60;78.70;;;;;;5031008;28;20474;-83
2022/01/25 09:06:39;;;;;;;26.88;17.20;;;7.60;78.80;;;;;;5009734;28;20044;-84
2022/01/25 09:09:07;;;;;;;26.05;17.27;;;7.60;78.80;;;;;;5034597;28;20032;-82
2022/01/25 09:11:39;;;;;;;29.40;18.33;;;7.60;78.80;;;;;;5027953;28;20467;-84
2022/01/25 09:14:06;;;;;;;28.13;18.35;;;7.60;78.80;;;;;;5034308;28;20025;-85
2022/01/25 09:16:36;;;;;;;25.92;16.98;;;7.60;78.80;;;;;;5017301;28;20087;-83
2022/01/25 09:19:03;;;;;;;26.83;17.20;;;7.60;78.90;;;;;;5017674;28;20037;-83
2022/01/25 09:21:29;;;;;;;26.02;16.42;;;7.60;78.80;;;;;;5017943;28;20025;-84
2022/01/25 09:23:55;;;;;;;28.08;18.35;;;7.60;78.80;;;;;;5034772;28;20029;-82
2022/01/25 09:26:22;;;;;;;28.80;18.17;;;7.60;78.80;;;;;;5034126;28;20072;-83
2022/01/25 09:28:50;;;;;;;29.17;17.77;;;7.60;78.90;;;;;;5017480;28;20031;-85
2022/01/25 09:31:16;;;;;;;27.98;17.55;;;7.60;78.80;;;;;;5035119;28;20108;-85
2022/01/25 09:33:44;;;;;;;29.85;18.98;;;7.60;78.80;;;;;;5026345;28;20112;-84
2022/01/25 09:36:10;;;;;;;27.70;17.48;;;7.60;78.80;;;;;;5033768;28;20109;-85
2022/01/25 09:38:39;;;;;;;26.83;17.35;;;7.60;78.90;;;;;;5050193;28;20510;-84
2022/01/25 09:41:07;;;;;;;27.33;17.98;;;7.60;78.80;;;;;;5033753;28;20083;-85
2022/01/25 09:43:33;;;;;;;26.48;17.23;;;7.60;78.80;;;;;;5031059;28;20052;-85
2022/01/25 09:45:59;;;;;;;28.70;17.92;;;7.60;78.80;;;;;;5033868;28;20037;-85
2022/01/25 09:48:25;;;;;;;27.35;17.20;;;7.60;78.90;;;;;;5030449;28;20030;-86
2022/01/25 09:50:51;;;;;;;29.40;18.35;;;7.60;78.90;;;;;;5015005;28;20064;-85
2022/01/25 09:53:20;;;;;;;28.60;17.60;;;7.60;78.90;;;;;;5034032;28;20120;-84
2022/01/25 09:55:46;;;;;;;26.25;17.50;;;7.60;78.90;;;;;;5014302;28;20125;-84
2022/01/25 09:58:14;;;;;;;27.38;17.40;;;7.60;79.50;;;;;;5032807;28;20087;-87
2022/01/25 10:00:45;;;;;;;26.63;16.38;;;7.60;78.90;;;;;;5032816;28;20033;-85
2022/01/25 10:03:21;;;;;;;26.50;16.92;;;7.70;78.90;;;;;;5032896;28;20028;-86
2022/01/25 10:05:49;;;;;;;27.52;17.85;;;7.70;78.90;;;;;;5032867;28;20043;-84
2022/01/25 10:08:25;;;;;;;28.48;18.45;;;7.60;78.90;;;;;;5015967;28;20029;-85
2022/01/25 10:10:54;;;;;;;24.75;15.82;;;7.70;79.00;;;;;;5016785;28;20025;-86
2022/01/25 10:13:22;;;;;;;27.42;17.35;;;7.60;78.90;;;;;;5032941;28;20045;-84
2022/01/25 10:15:51;;;;;;;26.15;16.17;;;7.60;78.90;;;;;;5032294;28;20478;-88
2022/01/25 10:18:17;;;;;;;29.15;18.88;;;7.70;78.90;;;;;;5031924;28;20033;-85
2022/01/25 10:20:49;;;;;;;29.15;18.08;;;7.70;78.90;;;;;;5016045;28;20040;-86
2022/01/25 10:23:22;;;;;;;26.23;16.58;;;7.60;78.90;;;;;;5033417;28;20056;-85
2022/01/25 10:25:51;;;;;;;26.13;16.45;;;7.60;78.90;;;;;;5016299;28;20121;-85
2022/01/25 10:28:27;;;;;;;27.67;18.02;;;7.70;78.90;;;;;;5031517;28;20075;-86
2022/01/25 10:31:03;;;;;;;28.45;17.30;;;7.70;79.00;;;;;;5011368;28;20180;-83
2022/01/25 10:33:50;;;;;;;26.75;16.45;;;7.70;78.90;;;;;;5046461;28;20083;-83
2022/01/25 10:36:23;;;;;;;26.77;17.90;;;7.70;79.60;;;;;;5015793;28;20048;-84
2022/01/25 10:38:52;;;;;;;26.38;17.20;;;7.70;78.90;;;;;;5041115;28;20116;-82
2022/01/25 10:41:20;;;;;;;28.95;17.67;;;7.70;78.90;;;;;;5030416;28;20071;-81
2022/01/25 10:43:49;;;;;;;28.10;17.75;;;7.70;78.90;;;;;;5032877;28;20052;-78
2022/01/25 10:46:24;;;;;;;27.38;18.05;;;7.70;78.90;;;;;;5032330;28;20022;-80
2022/01/25 10:48:52;;;;;;;29.35;18.50;;;7.70;78.90;;;;;;5049021;28;20075;-81
2022/01/25 10:51:30;;;;;;;27.80;18.15;;;7.70;78.90;;;;;;5032595;28;20415;-81
2022/01/25 10:54:07;;;;;;;26.15;17.30;;;7.70;78.90;;;;;;5033056;28;20029;-83
2022/01/25 10:56:41;;;;;;;27.70;17.90;;;7.70;78.90;;;;;;5033794;28;20033;-82
2022/01/25 10:59:09;;;;;;;27.08;16.98;;;7.70;78.90;;;;;;5024525;28;20044;-85
2022/01/25 11:01:38;;;;;;;26.58;16.67;;;7.70;78.90;;;;;;5032018;28;20032;-82
2022/01/25 11:04:16;;;;;;;26.45;16.83;;;7.70;78.90;;;;;;5031912;28;20033;-82
2022/01/25 11:06:42;;;;;;;26.65;16.73;;;7.70;78.90;;;;;;5014937;28;20041;-82
2022/01/25 11:09:11;;;;;;;27.40;17.52;;;7.70;78.90;;;;;;5015462;28;20021;-81
2022/01/25 11:11:49;;;;;;;27.67;17.50;;;7.80;79.00;;;;;;5032951;28;20021;-81
2022/01/25 11:17:00;;;;;;;28.98;18.13;;;7.80;78.90;;;;;;5031541;28;20057;-80
2022/01/25 11:19:27;;;;;;;27.67;18.30;;;7.70;78.70;;;;;;5006953;28;20061;-83
2022/01/25 11:21:54;;;;;;;28.00;17.40;;;7.80;78.80;;;;;;5031487;28;20440;-81
2022/01/25 11:24:22;;;;;;;26.83;17.13;;;7.70;78.80;;;;;;5015452;28;20053;-81
2022/01/25 11:26:50;;;;;;;28.27;17.98;;;7.80;78.90;;;;;;5031992;28;20084;-82
2022/01/25 11:29:16;;;;;;;27.55;17.20;;;7.80;78.90;;;;;;5011453;28;20153;-81
2022/01/25 11:31:49;;;;;;;30.30;18.90;;;7.80;78.90;;;;;;5039213;28;20076;-82
2022/01/25 11:34:16;;;;;;;27.90;17.25;;;7.80;78.80;;;;;;5014811;28;20053;-81
2022/01/25 11:36:54;;;;;;;27.85;18.15;;;7.80;78.80;;;;;;5015074;28;20382;-81
2022/01/25 11:39:24;;;;;;;27.02;16.95;;;7.80;78.90;;;;;;5031132;28;20105;-82
2022/01/25 11:42:00;;;;;;;27.75;17.48;;;7.80;78.80;;;;;;5013593;28;20033;-82
2022/01/25 11:44:29;;;;;;;28.10;17.80;;;7.80;78.80;;;;;;5030016;28;20041;-83
2022/01/25 11:47:11;;;;;;;28.42;17.73;;;7.90;78.80;;;;;;5014255;28;20029;-82
2022/01/25 11:50:05;;;;;;;28.98;17.75;;;7.80;78.90;;;;;;5030023;28;20030;-82
2022/01/25 11:52:32;;;;;;;26.83;16.90;;;7.80;78.80;;;;;;5026393;28;20045;-82
2022/01/25 11:55:16;;;;;;;28.05;17.30;;;7.80;78.70;;;;;;5014089;28;20049;-82
2022/01/25 11:58:03;;;;;;;29.13;18.02;;;7.80;78.90;;;;;;5023351;28;20022;-82
2022/01/25 12:00:51;;;;;;;28.40;17.90;;;7.80;78.80;;;;;;5038747;28;20026;-82
2022/01/25 12:03:41;;;;;;;26.67;16.83;;;7.80;78.80;;;;;;5030637;28;20044;-84
2022/01/25 12:06:19;;;;;;;25.38;16.55;;;7.80;78.90;;;;;;5030151;28;20048;-82
2022/01/25 12:11:52;;;;;;;29.13;17.88;;;7.80;78.80;;;;;;5029515;28;20065;-83
2022/01/25 12:14:48;;;;;;;27.00;17.27;;;7.80;78.90;;;;;;5045292;28;20483;-82
2022/01/25 12:17:25;;;;;;;26.13;17.27;;;7.80;78.80;;;;;;5012787;28;20034;-83
2022/01/25 12:19:58;;;;;;;25.70;16.85;;;7.80;78.70;;;;;;5030798;28;20090;-83
2022/01/25 12:25:08;;;;;;;29.20;17.65;;;7.80;78.70;;;;;;5030412;28;20060;-83
2022/01/25 12:27:38;;;;;;;28.67;17.58;;;7.80;78.70;;;;;;5030358;28;20064;-83
2022/01/25 12:30:12;;;;;;;28.88;17.90;;;7.80;78.70;;;;;;5013922;28;20091;-83
2022/01/25 12:33:08;;;;;;;26.42;16.35;;;7.90;78.80;;;;;;5004351;28;20108;-82
2022/01/25 12:35:48;;;;;;;28.48;16.77;;;7.90;78.90;;;;;;5030023;28;20040;-83
2022/01/25 12:38:38;;;;;;;28.83;17.88;;;7.90;78.80;;;;;;5008776;28;20029;-83
2022/01/25 12:41:13;;;;;;;27.92;17.60;;;7.90;78.80;;;;;;5030225;28;20029;-82
2022/01/25 12:43:53;;;;;;;25.95;16.23;;;7.90;78.80;;;;;;5044612;28;20488;-82
2022/01/25 12:46:21;;;;;;;27.35;17.92;;;7.90;78.80;;;;;;5013998;28;20056;-82
2022/01/25 12:48:50;;;;;;;27.33;17.38;;;7.90;78.70;;;;;;5013974;28;20041;-81
2022/01/25 12:51:22;;;;;;;28.00;17.45;;;7.90;78.80;;;;;;5030089;28;20022;-82
2022/01/25 12:53:50;;;;;;;27.75;17.73;;;7.90;78.80;;;;;;5030359;28;20029;-82
2022/01/25 12:56:19;;;;;;;27.23;16.95;;;7.90;78.80;;;;;;5008756;28;20064;-82
2022/01/25 12:58:47;;;;;;;28.40;17.35;;;7.90;78.70;;;;;;5047069;28;20021;-81
2022/01/25 13:01:18;;;;;;;30.27;18.60;;;7.90;78.70;;;;;;5039227;28;20025;-83
2022/01/25 13:03:45;;;;;;;26.15;16.98;;;7.90;78.70;;;;;;5013684;28;20025;-82
2022/01/25 13:06:16;;;;;;;27.77;17.58;;;8.00;78.70;;;;;;5029090;28;20034;-82
2022/01/25 13:09:04;;;;;;;28.65;18.33;;;7.90;78.70;;;;;;5013436;28;20037;-84
2022/01/25 13:12:26;;;;;;;28.63;17.98;;;8.00;78.70;;;;;;5021883;28;20040;-82
2022/01/25 13:15:15;;;;;;;25.58;15.60;;;8.00;78.80;;;;;;5030054;28;20117;-84
2022/01/25 13:17:38;;;;;;;25.88;17.15;;;8.00;78.60;;;;;;5038902;28;20084;-84
2022/01/25 13:20:07;;;;;;;26.42;16.27;;;8.00;78.60;;;;;;5030247;28;20091;-82
2022/01/25 13:22:40;;;;;;;29.08;17.30;;;8.00;78.60;;;;;;5029263;28;20030;-83
2022/01/25 13:25:31;;;;;;;26.70;16.92;;;8.00;78.60;;;;;;5042603;28;20041;-83
2022/01/25 13:28:00;;;;;;;25.30;17.40;;;8.00;78.60;;;;;;5032598;28;20034;-82
2022/01/25 13:30:44;;;;;;;27.13;16.77;;;8.00;78.60;;;;;;5033692;28;20488;-82
2022/01/25 13:33:20;;;;;;;27.58;16.70;;;8.00;78.60;;;;;;5031329;28;20492;-82
2022/01/25 13:35:52;;;;;;;28.45;17.35;;;8.00;78.50;;;;;;5033267;28;20087;-82
2022/01/25 13:38:19;;;;;;;28.75;17.83;;;8.00;78.50;;;;;;5016697;28;20026;-82
2022/01/25 13:46:32;;;;;;;26.83;16.88;;;8.00;78.50;;;;;;5025385;28;20041;-86
2022/01/25 13:49:19;;;;;;;27.95;17.75;;;8.00;78.50;;;;;;5022272;28;20025;-83
2022/01/25 13:51:53;;;;;;;25.08;16.88;;;8.00;78.50;;;;;;5024738;28;20068;-84
2022/01/25 13:54:22;;;;;;;27.42;16.88;;;8.00;79.20;;;;;;5033527;28;20116;-84
2022/01/25 13:56:48;;;;;;;25.98;16.85;;;8.00;78.50;;;;;;5034069;28;20040;-84
2022/01/25 13:59:16;;;;;;;26.23;16.13;;;8.00;78.50;;;;;;5033456;28;20150;-84
2022/01/25 14:01:45;;;;;;;27.88;16.90;;;8.00;78.60;;;;;;5017190;28;20049;-84
2022/01/25 14:04:25;;;;;;;29.05;17.60;;;8.00;78.50;;;;;;5033425;28;20025;-85
2022/01/25 14:06:52;;;;;;;29.20;18.15;;;8.00;78.50;;;;;;5033395;28;20038;-85
2022/01/25 14:09:30;;;;;;;28.67;17.23;;;8.10;78.50;;;;;;5017058;28;20628;-84
2022/01/25 14:25:44;;;;;;;28.02;17.30;;;8.00;78.50;;;;;;5035489;28;20270;-84
2022/01/25 14:28:19;;;;;;;27.42;16.65;;;8.10;78.60;;;;;;5048143;28;20090;-84
2022/01/25 14:30:49;;;;;;;27.30;16.48;;;8.00;78.50;;;;;;5024541;28;20033;-83
2022/01/25 14:33:20;;;;;;;27.08;16.80;;;8.00;78.50;;;;;;5033025;28;20025;-83
2022/01/25 14:36:00;;;;;;;25.67;16.10;;;8.00;78.50;;;;;;5049991;28;20051;-83
2022/01/25 14:38:39;;;;;;;26.48;16.55;;;8.00;78.60;;;;;;5032582;28;20029;-83
2022/01/25 14:41:38;;;;;;;27.38;17.13;;;8.10;78.60;;;;;;5017614;28;20519;-85
2022/01/25 14:44:21;;;;;;;23.98;15.73;;;8.00;78.60;;;;;;5012244;28;20068;-85
2022/01/25 14:46:51;;;;;;;24.50;15.35;;;8.00;78.50;;;;;;5032043;28;20032;-82
2022/01/25 14:49:26;;;;;;;27.17;16.33;;;8.00;78.50;;;;;;5015521;28;20120;-85
2022/01/25 14:51:56;;;;;;;;;;;8.00;78.50;;;;;;5015872;28;20093;-80
2022/01/25 14:54:32;;;;;;;23.27;15.43;;;8.00;78.50;;;;;;5028475;28;19909;-82
2022/01/25 14:57:02;;;;;;;24.50;15.45;;;8.10;78.50;;;;;;5019556;28;20067;-82
2022/01/25 14:59:32;;;;;;;25.27;15.27;;;8.00;78.50;;;;;;5031336;28;20036;-82
2022/01/25 15:02:05;;;;;;;26.05;15.63;;;8.00;78.50;;;;;;5033056;28;20029;-81
2022/01/25 15:04:39;;;;;;;27.35;16.85;;;8.00;78.50;;;;;;5015508;28;20094;-80
2022/01/25 15:07:34;;;;;;;26.52;16.70;;;8.00;78.50;;;;;;5031103;28;20531;-86
2022/01/25 15:10:22;;;;;;;25.42;16.52;;;8.00;78.60;;;;;;5031339;28;20064;-85
2022/01/25 15:12:50;;;;;;;26.98;15.68;;;8.00;78.50;;;;;;5030686;28;20037;-82
2022/01/25 15:15:24;;;;;;;24.83;15.88;;;8.00;78.40;;;;;;5014480;28;20030;-82